createdAt,value
2022-08-11T02:42:01.335Z,0.1
2022-08-11T02:44:01.003Z,0.2
2022-08-11T02:45:01.444Z,0.3
2022-08-11T02:47:01.213Z,0.4
2022-08-11T02:48:01.035Z,0.5
2022-08-11T02:50:07.091Z,0.6
2022-08-11T02:51:01.006Z,0.7
2022-08-11T02:52:01.225Z,0.8
2022-08-11T02:53:01.040Z,0.9
2022-08-11T02:54:01.012Z,1.1
2022-08-11T02:55:01.439Z,1.3
2022-08-11T02:56:01.024Z,1.5
2022-08-11T02:57:01.314Z,1.7
2022-08-11T02:58:01.009Z,1.9
2022-08-11T02:59:01.023Z,2.2
2022-08-11T03:00:01.450Z,2.5
2022-08-11T03:01:06.010Z,2.7
2022-08-11T03:02:05.037Z,3.1
2022-08-11T03:03:01.003Z,3.5
2022-08-11T03:04:01.007Z,4.2
2022-08-11T03:05:01.033Z,4.9
2022-08-11T03:06:01.008Z,5.5
2022-08-11T03:07:01.216Z,6.5
2022-08-11T03:08:01.039Z,7.4
2022-08-11T03:09:01.013Z,8.7
2022-08-11T03:10:01.024Z,10.1
2022-08-11T03:11:01.016Z,11.4
2022-08-11T03:12:01.219Z,13.4
2022-08-11T03:13:01.012Z,15.4
2022-08-11T03:14:01.017Z,18.3
2022-08-11T03:15:01.456Z,21.3
2022-08-11T03:16:01.006Z,24.2
2022-08-11T03:17:01.213Z,28.5
2022-08-11T03:18:01.038Z,32.7
2022-08-11T03:19:01.008Z,38.7
2022-08-11T03:20:01.018Z,44.7
2022-08-11T03:21:01.012Z,50.7
2022-08-11T03:22:02.780Z,59.2
2022-08-11T03:23:01.011Z,67.7
2022-08-11T03:24:01.012Z,79.5
2022-08-11T03:25:01.436Z,91.3
2022-08-11T03:26:01.005Z,103.1
2022-08-11T03:27:01.220Z,119.2
2022-08-11T03:28:02.652Z,135.3
2022-08-11T03:29:01.017Z,157.1
2022-08-11T03:30:01.533Z,178.8
2022-08-11T03:31:01.008Z,200.5
2022-08-11T03:32:01.219Z,229.1
2022-08-11T03:33:01.021Z,257.6
2022-08-11T03:34:05.605Z,294.6
2022-08-11T03:35:01.029Z,331.6
2022-08-11T03:36:01.011Z,368.6
2022-08-11T03:37:15.858Z,415.8
2022-08-11T03:38:00.999Z,463.0
2022-08-11T03:39:01.012Z,522.5
2022-08-11T03:40:01.973Z,582.1
2022-08-11T03:41:01.018Z,641.6
2022-08-11T03:42:05.417Z,715.1
2022-08-11T03:43:01.018Z,788.5
2022-08-11T03:44:01.020Z,877.5
2022-08-11T03:45:01.468Z,966.5
2022-08-11T03:46:01.022Z,1055.5
2022-08-11T03:47:01.227Z,1161.4
2022-08-11T03:48:01.021Z,1267.3
2022-08-11T03:49:01.025Z,1391.3
2022-08-11T03:50:01.032Z,1515.4
2022-08-11T03:51:01.022Z,1639.5
2022-08-11T03:52:01.243Z,1782.7
2022-08-11T03:53:01.022Z,1925.9
2022-08-11T03:54:01.020Z,2088.0
2022-08-11T03:55:01.461Z,2250.1
2022-08-11T03:56:01.030Z,2412.3
2022-08-11T03:57:01.253Z,2593.5
2022-08-11T03:58:01.026Z,2774.8
2022-08-11T03:59:01.023Z,2976.9
2022-08-11T04:00:01.458Z,3178.9
2022-08-11T04:01:01.030Z,3381.0
2022-08-11T04:02:01.282Z,3603.3
2022-08-11T04:03:01.035Z,3825.7
2022-08-11T04:04:01.020Z,4065.3
2022-08-11T04:05:01.041Z,4305.0
2022-08-11T04:06:01.022Z,4544.7
2022-08-11T04:07:01.226Z,4802.1
2022-08-11T04:08:01.061Z,5059.6
2022-08-11T04:09:01.027Z,5332.5
2022-08-11T04:10:01.044Z,5605.3
2022-08-11T04:11:06.037Z,5878.2
2022-08-11T04:12:01.239Z,6165.2
2022-08-11T04:13:06.022Z,6452.2
2022-08-11T04:14:01.022Z,6750.8
2022-08-11T04:15:01.546Z,7049.4
2022-08-11T04:16:10.760Z,7348.0
2022-08-11T04:17:01.432Z,7662.0
2022-08-11T04:18:01.046Z,7976.0
2022-08-11T04:19:01.032Z,8292.1
2022-08-11T04:20:01.041Z,8608.1
2022-08-11T04:21:01.103Z,8924.2
2022-08-11T04:22:01.256Z,9241.2
2022-08-11T04:23:01.062Z,9558.2
2022-08-11T04:24:13.745Z,9879.7
2022-08-11T04:25:01.026Z,10201.3
2022-08-11T04:26:01.034Z,10522.8
2022-08-11T04:27:01.856Z,10843.0
2022-08-11T04:28:01.056Z,11163.2
2022-08-11T04:29:01.031Z,11478.5
2022-08-11T04:30:12.503Z,11793.7
2022-08-11T04:31:01.025Z,12109.0
2022-08-11T04:32:01.289Z,12415.5
2022-08-11T04:33:01.079Z,12721.9
2022-08-11T04:34:01.110Z,13028.9
2022-08-11T04:35:01.046Z,13335.9
2022-08-11T04:36:01.035Z,13642.9
2022-08-11T04:37:01.236Z,13942.1
2022-08-11T04:38:01.043Z,14241.2
2022-08-11T04:39:01.033Z,14530.4
2022-08-11T04:40:01.460Z,14819.6
2022-08-11T04:41:01.033Z,15108.8
2022-08-11T04:42:01.246Z,15395.3
2022-08-11T04:43:01.026Z,15681.7
2022-08-11T04:44:02.976Z,15966.3
2022-08-11T04:45:01.487Z,16250.9
2022-08-11T04:46:01.038Z,16535.5
2022-08-11T04:47:01.238Z,16816.1
2022-08-11T04:48:04.557Z,17096.6
2022-08-11T04:49:01.039Z,17377.5
2022-08-11T04:50:01.456Z,17658.5
2022-08-11T04:51:08.949Z,17939.4
2022-08-11T04:52:01.178Z,18221.7
2022-08-11T04:53:01.188Z,18504.1
2022-08-11T04:54:01.043Z,18782.8
2022-08-11T04:55:02.519Z,19061.5
2022-08-11T04:56:01.032Z,19340.3
2022-08-11T04:57:01.278Z,19608.3
2022-08-11T04:58:01.039Z,19876.3
2022-08-11T04:59:01.032Z,20134.0
2022-08-11T05:00:02.496Z,20391.7
2022-08-11T05:01:01.034Z,20649.5
2022-08-11T05:02:01.445Z,20897.0
2022-08-11T05:03:01.148Z,21144.5
2022-08-11T05:04:01.041Z,21387.1
2022-08-11T05:05:01.546Z,21629.7
2022-08-11T05:06:02.061Z,21872.3
2022-08-11T05:07:01.317Z,22096.5
2022-08-11T05:08:01.062Z,22320.7
2022-08-11T05:09:06.034Z,22532.9
2022-08-11T05:10:01.473Z,22745.0
2022-08-11T05:11:01.032Z,22957.1
2022-08-11T05:12:01.550Z,23169.9
2022-08-11T05:13:01.034Z,23382.6
2022-08-11T05:14:01.034Z,23616.0
2022-08-11T05:15:06.541Z,23849.4
2022-08-11T05:16:01.036Z,24082.8
2022-08-11T05:17:01.239Z,24495.7
2022-08-11T05:18:01.047Z,24908.7
2022-08-11T05:19:01.052Z,25168.9
2022-08-11T05:20:01.517Z,25429.2
2022-08-11T05:21:04.814Z,25689.5
2022-08-11T05:22:01.261Z,25994.5
2022-08-11T05:23:01.045Z,26299.6
2022-08-11T05:24:01.042Z,27713.9
2022-08-11T05:25:01.889Z,29128.3
2022-08-11T05:26:09.203Z,30542.6
2022-08-11T05:27:01.278Z,32272.0
2022-08-11T05:28:01.086Z,34001.4
2022-08-11T05:29:01.047Z,35703.9
2022-08-11T05:30:01.467Z,37406.3
2022-08-11T05:31:01.044Z,39108.8
2022-08-11T05:32:01.254Z,40615.5
2022-08-11T05:33:02.126Z,42122.1
2022-08-11T05:34:01.053Z,43778.2
2022-08-11T05:35:01.554Z,45434.3
2022-08-11T05:36:03.231Z,47090.3
2022-08-11T05:37:17.441Z,48697.5
2022-08-11T05:38:01.057Z,50304.6
2022-08-11T05:39:01.054Z,50773.1
2022-08-11T05:40:02.159Z,51283.5
2022-08-11T05:41:01.051Z,51794.0
2022-08-11T05:42:01.268Z,52002.9
2022-08-11T05:43:01.047Z,52211.9
2022-08-11T05:44:19.291Z,52389.6
2022-08-11T05:45:03.577Z,52585.9
2022-08-11T05:46:03.158Z,52782.1
2022-08-11T05:47:02.287Z,52969.7
2022-08-11T05:48:01.061Z,53157.2
2022-08-11T05:49:01.062Z,53303.9
2022-08-11T05:51:01.058Z,53731.7
2022-08-11T05:52:05.209Z,54016.7
2022-08-11T05:53:01.068Z,54301.7
2022-08-11T05:54:01.070Z,54586.7
2022-08-11T05:56:01.806Z,55293.2
2022-08-11T05:57:01.294Z,55708.5
2022-08-11T05:58:01.103Z,56123.9
2022-08-11T05:59:01.059Z,56539.2
2022-08-11T06:01:01.065Z,57558.9
2022-08-11T06:02:01.355Z,58152.0
2022-08-11T06:03:01.102Z,58745.1
2022-08-11T06:04:01.060Z,59338.1
2022-08-11T06:06:01.070Z,60590.7
2022-08-11T06:07:01.300Z,61182.4
2022-08-11T06:08:01.063Z,61774.1
2022-08-11T06:09:06.068Z,62365.9
2022-08-11T06:11:01.062Z,63328.8
2022-08-11T06:12:01.276Z,63696.6
2022-08-11T06:13:01.151Z,64064.4
2022-08-11T06:14:01.071Z,64432.2
2022-08-11T06:15:01.516Z,64686.9
2022-08-11T06:16:04.967Z,64941.7
2022-08-11T06:17:01.278Z,65100.5
2022-08-11T06:18:01.260Z,65259.3
2022-08-11T06:19:01.075Z,65418.1
2022-08-11T06:21:01.069Z,65535.0
2022-08-11T06:45:01.890Z,65535.0
2022-08-11T07:15:01.957Z,65535.0
2022-08-11T12:31:01.103Z,65535.0
2022-08-11T12:45:01.738Z,65535.0
2022-08-11T13:00:03.314Z,65535.0
2022-08-11T13:30:01.101Z,65535.0
2022-08-11T13:45:01.104Z,65535.0
2022-08-11T14:00:02.116Z,65535.0
2022-08-11T14:15:05.956Z,65535.0
2022-08-11T14:30:05.563Z,65535.0
2022-08-11T14:45:01.466Z,65535.0
2022-08-11T15:00:01.165Z,65535.0
2022-08-11T15:15:01.374Z,65535.0
2022-08-11T15:30:01.386Z,65535.0
2022-08-11T15:45:03.394Z,65535.0
2022-08-11T16:00:02.232Z,65535.0
2022-08-11T16:15:01.443Z,65535.0
2022-08-11T16:26:17.667Z,64788.7
2022-08-11T16:27:06.334Z,64042.5
2022-08-11T16:27:06.804Z,62631.5
2022-08-11T16:28:01.109Z,61220.6
2022-08-11T16:29:01.103Z,59809.7
2022-08-11T16:30:01.323Z,58096.4
2022-08-11T16:31:01.643Z,56383.1
2022-08-11T16:32:01.108Z,54505.1
2022-08-11T16:33:01.107Z,52627.1
2022-08-11T16:34:01.322Z,50749.1
2022-08-11T16:35:01.313Z,48775.5
2022-08-11T16:36:01.570Z,46801.8
2022-08-11T16:37:01.097Z,44759.8
2022-08-11T16:38:01.103Z,42717.8
2022-08-11T16:39:01.100Z,40675.8
2022-08-11T16:40:01.371Z,39326.3
2022-08-11T16:41:01.569Z,37976.9
2022-08-11T16:42:01.100Z,37247.9
2022-08-11T16:43:08.998Z,36519.0
2022-08-11T16:44:01.101Z,35790.1
2022-08-11T16:45:01.303Z,35325.6
2022-08-11T16:46:01.647Z,34861.1
2022-08-11T16:47:01.111Z,34521.3
2022-08-11T16:48:02.412Z,34181.5
2022-08-11T16:49:01.105Z,33841.7
2022-08-11T16:50:01.388Z,33537.5
2022-08-11T16:51:01.954Z,33233.3
2022-08-11T16:52:01.109Z,32979.9
2022-08-11T16:53:01.108Z,32726.4
2022-08-11T16:54:04.919Z,32472.9
2022-08-11T16:55:01.320Z,32229.9
2022-08-11T16:56:01.126Z,31986.9
2022-08-11T16:57:01.107Z,31757.0
2022-08-11T16:58:01.158Z,31527.1
2022-08-11T16:59:01.110Z,31297.1
2022-08-11T17:00:02.199Z,31077.3
2022-08-11T17:01:01.792Z,30857.5
2022-08-11T17:02:01.110Z,30650.3
2022-08-11T17:03:01.115Z,30443.1
2022-08-11T17:04:01.158Z,30235.9
2022-08-11T17:05:16.127Z,30065.3
2022-08-11T17:06:01.263Z,29894.7
2022-08-11T17:07:01.115Z,29722.5
2022-08-11T17:08:02.339Z,29550.2
2022-08-11T17:09:01.113Z,29377.9
2022-08-11T17:10:01.110Z,29225.7
2022-08-11T17:11:04.927Z,29073.5
2022-08-11T17:12:01.107Z,28932.4
2022-08-11T17:13:01.111Z,28791.3
2022-08-11T17:15:01.098Z,28621.7
2022-08-11T17:16:01.901Z,28479.8
2022-08-11T17:17:01.107Z,28311.7
2022-08-11T17:18:01.094Z,28171.1
2022-08-11T17:19:01.095Z,28030.5
2022-08-11T17:20:38.854Z,27864.4
2022-08-11T17:21:01.693Z,27721.7
2022-08-11T17:22:01.098Z,27550.6
2022-08-11T17:23:01.100Z,27398.7
2022-08-11T17:24:05.143Z,27246.9
2022-08-11T17:25:01.107Z,27067.0
2022-08-11T17:26:05.208Z,26910.3
2022-08-11T17:27:01.106Z,26724.7
2022-08-11T17:28:01.099Z,26559.1
2022-08-11T17:29:01.101Z,26393.5
2022-08-11T17:30:01.108Z,26224.7
2022-08-11T17:31:23.368Z,26055.8
2022-08-11T17:32:01.093Z,25877.2
2022-08-11T17:33:01.222Z,25698.6
2022-08-11T17:34:01.095Z,25520.0
2022-08-11T17:35:01.093Z,25331.9
2022-08-11T17:36:01.776Z,25143.9
2022-08-11T17:37:01.168Z,24951.9
2022-08-11T17:38:01.093Z,24760.0
2022-08-11T17:39:01.111Z,24568.1
2022-08-11T17:40:01.161Z,24367.7
2022-08-11T17:41:02.533Z,24167.4
2022-08-11T17:42:01.098Z,23961.1
2022-08-11T17:43:01.107Z,23754.7
2022-08-11T17:44:01.108Z,23548.4
2022-08-11T17:45:01.111Z,23336.3
2022-08-11T17:46:01.956Z,23124.1
2022-08-11T17:47:05.877Z,22904.9
2022-08-11T17:48:01.098Z,22685.6
2022-08-11T17:49:01.102Z,22466.3
2022-08-11T17:50:09.602Z,22240.2
2022-08-11T17:51:02.830Z,22014.1
2022-08-11T17:52:01.110Z,21820.3
2022-08-11T17:53:01.106Z,21584.6
2022-08-11T17:54:02.273Z,21348.9
2022-08-11T17:55:01.106Z,21108.1
2022-08-11T17:56:04.319Z,20867.2
2022-08-11T17:57:01.114Z,20661.3
2022-08-11T17:58:02.181Z,20415.3
2022-08-11T17:59:01.104Z,20169.3
2022-08-11T18:00:01.126Z,19923.1
2022-08-11T18:01:10.560Z,19677.0
2022-08-11T18:02:01.216Z,19473.9
2022-08-11T18:03:01.174Z,19233.9
2022-08-11T18:04:01.175Z,18993.9
2022-08-11T18:05:01.170Z,18760.0
2022-08-11T18:06:01.778Z,18526.1
2022-08-11T18:07:01.105Z,18292.1
2022-08-11T18:08:01.111Z,18061.7
2022-08-11T18:09:01.108Z,17831.2
2022-08-11T18:10:01.140Z,17603.3
2022-08-11T18:11:01.774Z,17375.3
2022-08-11T18:12:06.309Z,17147.4
2022-08-11T18:13:01.119Z,16920.6
2022-08-11T18:14:01.178Z,16693.8
2022-08-11T18:15:01.112Z,16465.5
2022-08-11T18:16:02.267Z,16237.3
2022-08-11T18:18:01.093Z,15969.5
2022-08-11T18:19:01.091Z,15738.7
2022-08-11T18:20:01.093Z,15466.3
2022-08-11T18:21:01.097Z,15229.7
2022-08-11T18:22:16.494Z,14950.9
2022-08-11T18:23:01.122Z,14672.1
2022-08-11T18:24:01.110Z,14431.7
2022-08-11T18:25:02.121Z,14147.7
2022-08-11T18:26:01.186Z,13902.7
2022-08-11T18:27:01.868Z,13657.7
2022-08-11T18:28:01.101Z,13369.5
2022-08-11T18:29:01.110Z,13120.2
2022-08-11T18:30:01.100Z,12827.2
2022-08-11T18:31:01.892Z,12573.3
2022-08-11T18:32:02.194Z,12319.5
2022-08-11T18:33:25.312Z,12060.5
2022-08-11T18:34:07.282Z,11801.6
2022-08-11T18:35:01.156Z,11538.9
2022-08-11T18:36:01.092Z,11276.1
2022-08-11T18:37:01.748Z,11055.6
2022-08-11T18:38:01.095Z,10788.9
2022-08-11T18:39:01.094Z,10522.1
2022-08-11T18:40:01.202Z,10252.9
2022-08-11T18:41:01.135Z,9983.6
2022-08-11T18:42:06.739Z,9714.3
2022-08-11T18:43:01.093Z,9442.2
2022-08-11T18:44:01.100Z,9170.1
2022-08-11T18:45:01.113Z,8895.8
2022-08-11T18:46:05.298Z,8621.5
2022-08-11T18:47:08.888Z,8302.1
2022-08-11T18:48:01.110Z,8027.3
2022-08-11T18:49:01.101Z,7752.4
2022-08-11T18:50:01.842Z,7478.8
2022-08-11T18:51:30.283Z,7205.2
2022-08-11T18:52:01.765Z,6931.6
2022-08-11T18:53:01.110Z,6661.9
2022-08-11T18:54:01.112Z,6392.3
2022-08-11T18:55:01.123Z,6128.7
2022-08-11T18:56:01.128Z,5865.1
2022-08-11T18:57:01.790Z,5601.5
2022-08-11T18:58:01.112Z,5346.1
2022-08-11T18:59:01.121Z,5090.8
2022-08-11T19:00:01.111Z,4846.6
2022-08-11T19:01:01.265Z,4602.4
2022-08-11T19:02:01.831Z,4403.3
2022-08-11T19:03:01.110Z,4172.6
2022-08-11T19:04:02.312Z,3941.9
2022-08-11T19:05:01.108Z,3726.5
2022-08-11T19:06:05.576Z,3511.2
2022-08-11T19:07:01.757Z,3295.9
2022-08-11T19:08:01.129Z,3097.2
2022-08-11T19:09:01.104Z,2898.5
2022-08-11T19:10:01.136Z,2717.6
2022-08-11T19:11:01.139Z,2536.7
2022-08-11T19:12:01.752Z,2355.7
2022-08-11T19:13:01.122Z,2193.3
2022-08-11T19:14:01.117Z,2030.8
2022-08-11T19:16:01.134Z,1886.8
2022-08-11T19:17:01.806Z,1742.8
2022-08-11T19:18:01.113Z,1585.4
2022-08-11T19:19:01.099Z,1459.7
2022-08-11T19:20:01.172Z,1323.0
2022-08-11T19:21:01.141Z,1215.1
2022-08-11T19:22:01.748Z,1107.1
2022-08-11T19:23:01.120Z,990.5
2022-08-11T19:24:01.096Z,899.5
2022-08-11T19:25:01.103Z,801.8
2022-08-11T19:26:01.133Z,726.5
2022-08-11T19:27:02.766Z,651.1
2022-08-11T19:28:01.109Z,570.7
2022-08-11T19:29:01.110Z,509.7
2022-08-11T19:30:02.266Z,444.8
2022-08-11T19:31:01.142Z,396.2
2022-08-11T19:32:01.814Z,347.6
2022-08-11T19:33:01.106Z,309.7
2022-08-11T19:34:03.107Z,271.7
2022-08-11T19:35:01.121Z,242.7
2022-08-11T19:36:01.143Z,213.7
2022-08-11T19:37:02.039Z,184.7
2022-08-11T19:38:01.114Z,163.0
2022-08-11T19:39:01.105Z,141.3
2022-08-11T19:40:01.103Z,125.3
2022-08-11T19:41:01.148Z,109.4
2022-08-11T19:42:01.800Z,93.5
2022-08-11T19:43:01.108Z,81.9
2022-08-11T19:44:01.111Z,70.3
2022-08-11T19:45:01.119Z,62.0
2022-08-11T19:47:07.514Z,53.4
2022-08-11T19:48:21.013Z,44.8
2022-08-11T19:49:06.077Z,38.9
2022-08-11T19:50:01.101Z,32.9
2022-08-11T19:51:01.100Z,28.8
2022-08-11T19:52:02.310Z,24.7
2022-08-11T19:53:01.119Z,20.5
2022-08-11T19:54:01.098Z,17.7
2022-08-11T19:55:01.119Z,14.8
2022-08-11T19:56:01.116Z,12.8
2022-08-11T19:57:02.365Z,10.8
2022-08-11T19:58:01.111Z,8.7
2022-08-11T19:59:01.107Z,7.4
2022-08-11T20:00:01.112Z,6.1
2022-08-11T20:01:01.352Z,5.2
2022-08-11T20:02:15.619Z,4.6
2022-08-11T20:03:01.824Z,4.0
2022-08-11T20:04:01.095Z,3.4
2022-08-11T20:05:01.100Z,3.0
2022-08-11T20:06:01.152Z,2.6
2022-08-11T20:07:02.027Z,2.2
2022-08-11T20:08:01.101Z,1.9
2022-08-11T20:09:01.105Z,1.7
2022-08-11T20:10:05.615Z,1.5
2022-08-11T20:11:01.133Z,1.4
2022-08-11T20:12:01.745Z,1.3
2022-08-11T20:13:01.108Z,1.1
2022-08-11T20:14:01.110Z,1.0
2022-08-11T20:15:01.131Z,0.9
2022-08-11T20:16:01.149Z,0.7
2022-08-11T20:18:01.111Z,0.6
2022-08-11T20:19:01.115Z,0.5
2022-08-11T20:21:01.211Z,0.4
2022-08-11T20:22:10.700Z,0.3
2022-08-11T20:24:02.146Z,0.2
2022-08-11T20:25:01.122Z,0.1
2022-08-11T22:45:06.513Z,0.1
2022-08-11T22:47:00.796Z,0.2
2022-08-11T22:48:00.801Z,0.3
2022-08-11T23:00:02.982Z,0.3
2022-08-11T23:01:00.942Z,0.2
2022-08-11T23:02:00.857Z,0.1
